createdAt,value
2023-03-26T00:01:01.184Z,4.2
2023-03-26T00:04:03.128Z,4.1
2023-03-26T00:07:05.089Z,4.5
2023-03-26T00:10:07.073Z,6.4
2023-03-26T00:13:09.038Z,5.1
2023-03-26T00:16:11.019Z,3.7
2023-03-26T00:19:12.946Z,6.4
2023-03-26T00:22:14.922Z,6.5
2023-03-26T00:25:16.871Z,7
2023-03-26T00:28:18.840Z,5
2023-03-26T00:31:20.883Z,7.5
2023-03-26T00:34:22.770Z,3.3
2023-03-26T00:37:24.687Z,3.5
2023-03-26T00:40:26.682Z,6.2
2023-03-26T00:43:28.649Z,4.5
2023-03-26T00:46:30.630Z,5.5
2023-03-26T00:49:32.551Z,3.6
2023-03-26T00:52:34.506Z,5.9
2023-03-26T00:55:36.539Z,4.5
2023-03-26T00:58:38.455Z,5.9
2023-03-26T01:01:40.426Z,6.1
2023-03-26T01:04:42.498Z,8.1
2023-03-26T01:07:44.320Z,4.7
2023-03-26T01:10:46.369Z,7.5
2023-03-26T01:13:48.265Z,5.8
2023-03-26T01:16:50.270Z,5.7
2023-03-26T01:19:52.204Z,5.8
2023-03-26T01:22:54.138Z,5.6
2023-03-26T01:25:56.280Z,6.3
2023-03-26T01:28:58.056Z,5.4
2023-03-26T01:32:00.027Z,6
2023-03-26T01:35:01.984Z,6.1
2023-03-26T01:38:03.987Z,5.7
2023-03-26T01:41:05.892Z,4.7
2023-03-26T01:44:07.840Z,4.6
2023-03-26T01:47:09.844Z,6.4
2023-03-26T01:50:11.786Z,5.2
2023-03-26T01:53:13.750Z,7.5
2023-03-26T01:56:15.720Z,8.1
2023-03-26T01:59:17.720Z,6
2023-03-26T02:02:19.698Z,4.7
2023-03-26T02:05:21.590Z,4.2
2023-03-26T02:08:23.643Z,6.2
2023-03-26T02:11:33.612Z,5.4
2023-03-26T02:14:27.510Z,6.5
2023-03-26T02:17:29.493Z,4.4
2023-03-26T02:20:31.426Z,6.2
2023-03-26T02:23:33.370Z,4.4
2023-03-26T02:26:35.382Z,6.6
2023-03-26T02:29:37.316Z,4.8
2023-03-26T02:32:39.306Z,9
2023-03-26T02:35:41.311Z,5.3
2023-03-26T02:38:43.217Z,3.9
2023-03-26T02:41:45.229Z,8
2023-03-26T02:44:47.159Z,8.7
2023-03-26T02:47:49.159Z,6.4
2023-03-26T02:50:51.071Z,4.7
2023-03-26T02:53:53.082Z,7.7
2023-03-26T02:56:55.015Z,6
2023-03-26T02:59:56.975Z,5.2
2023-03-26T03:02:59.028Z,7.9
2023-03-26T03:06:00.871Z,7
2023-03-26T03:09:02.832Z,8.5
2023-03-26T03:12:04.816Z,6.3
2023-03-26T03:15:06.775Z,8
2023-03-26T03:18:08.712Z,9.4
2023-03-26T03:21:10.662Z,7.3
2023-03-26T03:24:12.645Z,7.3
2023-03-26T03:27:14.589Z,6.5
2023-03-26T03:30:16.562Z,4.1
2023-03-26T03:33:18.498Z,6.7
2023-03-26T03:36:21.770Z,6.7
2023-03-26T03:39:22.466Z,7.5
2023-03-26T03:42:24.417Z,7.2
2023-03-26T03:45:26.372Z,7.5
2023-03-26T03:48:28.338Z,10.4
2023-03-26T03:51:30.273Z,7.1
2023-03-26T03:54:32.291Z,5.8
2023-03-26T03:57:34.249Z,7.7
2023-03-26T04:00:36.221Z,6.6
2023-03-26T04:03:38.251Z,8.2
2023-03-26T04:06:40.115Z,5.2
2023-03-26T04:09:42.082Z,5.2
2023-03-26T04:12:44.046Z,6.5
2023-03-26T04:15:46.114Z,4.8
2023-03-26T04:18:48.125Z,4.6
2023-03-26T04:21:49.991Z,6.4
2023-03-26T04:24:51.954Z,7.2
2023-03-26T04:27:53.879Z,8.2
2023-03-26T04:30:55.843Z,8.8
2023-03-26T04:33:57.831Z,5.4
2023-03-26T04:36:59.760Z,4.2
2023-03-26T04:40:01.729Z,9.4
2023-03-26T04:43:03.721Z,5.2
2023-03-26T04:46:05.708Z,8.6
2023-03-26T04:49:07.661Z,9.6
2023-03-26T04:52:09.638Z,10.7
2023-03-26T04:55:11.611Z,9
2023-03-26T04:58:13.579Z,10.2
2023-03-26T05:01:15.569Z,9.9
2023-03-26T05:04:17.538Z,8.7
2023-03-26T05:07:19.566Z,8.2
2023-03-26T05:10:21.582Z,5.1
2023-03-26T05:13:23.512Z,7.2
2023-03-26T05:16:25.570Z,6.7
2023-03-26T05:19:27.489Z,9.2
2023-03-26T05:22:29.413Z,4.8
2023-03-26T05:25:31.425Z,6.5
2023-03-26T05:28:33.340Z,5.2
2023-03-26T05:31:35.340Z,7.4
2023-03-26T05:34:37.311Z,8.7
2023-03-26T05:37:39.230Z,8.6
2023-03-26T05:40:41.245Z,8.9
2023-03-26T05:43:43.185Z,7
2023-03-26T05:46:45.208Z,9.2
2023-03-26T05:49:47.124Z,10.7
2023-03-26T05:52:49.094Z,8.5
2023-03-26T05:55:51.052Z,6.4
2023-03-26T05:58:53.033Z,6.5
2023-03-26T06:01:54.993Z,7.7
2023-03-26T06:04:56.961Z,7.6
2023-03-26T06:07:58.906Z,7.4
2023-03-26T06:11:00.878Z,6.8
2023-03-26T06:14:02.920Z,8
2023-03-26T06:17:04.899Z,6.6
2023-03-26T06:20:08.811Z,7.7
2023-03-26T06:23:08.833Z,9.5
2023-03-26T06:26:10.774Z,8.9
2023-03-26T06:29:12.732Z,5
2023-03-26T06:32:19.433Z,7
2023-03-26T06:35:16.855Z,5.9
2023-03-26T06:38:18.646Z,6.8
2023-03-26T06:41:20.617Z,7.9
2023-03-26T06:44:22.628Z,5.3
2023-03-26T06:47:24.602Z,5.6
2023-03-26T06:50:26.563Z,10.8
2023-03-26T06:53:28.496Z,13.1
2023-03-26T06:56:30.502Z,7
2023-03-26T06:59:32.453Z,10.4
2023-03-26T07:02:34.454Z,5.4
2023-03-26T07:05:36.357Z,10
2023-03-26T07:08:38.314Z,5.3
2023-03-26T07:11:40.314Z,12
2023-03-26T07:14:42.260Z,5.8
2023-03-26T07:17:44.246Z,6.6
2023-03-26T07:20:46.185Z,9.9
2023-03-26T07:23:48.158Z,11.9
2023-03-26T07:26:50.135Z,8.1
2023-03-26T07:29:52.109Z,6.5
2023-03-26T07:32:54.141Z,11.2
2023-03-26T07:35:56.009Z,7.5
2023-03-26T07:38:57.906Z,12.4
2023-03-26T07:41:59.857Z,12.8
2023-03-26T07:45:01.841Z,12.1
2023-03-26T07:48:03.861Z,8.7
2023-03-26T07:51:05.781Z,9.7
2023-03-26T07:54:07.785Z,8.8
2023-03-26T08:00:11.683Z,7.3
2023-03-26T08:03:13.712Z,8
2023-03-26T08:06:15.609Z,8.2
2023-03-26T08:09:17.531Z,10.9
2023-03-26T08:12:19.573Z,12.2
2023-03-26T08:15:21.484Z,10.6
2023-03-26T08:18:23.487Z,6.7
2023-03-26T08:21:25.467Z,6.9
2023-03-26T08:24:27.481Z,9.2
2023-03-26T08:27:29.396Z,10.5
2023-03-26T08:30:31.368Z,8.1
2023-03-26T08:33:33.380Z,6.5
2023-03-26T08:36:35.330Z,10.7
2023-03-26T08:39:37.303Z,10.1
2023-03-26T08:42:39.239Z,11.1
2023-03-26T08:45:41.202Z,7.1
2023-03-26T08:48:43.148Z,11.6
2023-03-26T08:51:45.113Z,11.2
2023-03-26T08:54:47.079Z,8.1
2023-03-26T08:57:49.078Z,9.7
2023-03-26T09:00:51.026Z,6.3
2023-03-26T09:03:53.138Z,6.5
2023-03-26T09:06:54.979Z,7.7
2023-03-26T09:09:56.937Z,8.6
2023-03-26T09:12:58.926Z,7.2
2023-03-26T09:16:00.971Z,7.8
2023-03-26T09:19:02.910Z,7.9
2023-03-26T09:22:04.972Z,6.8
2023-03-26T09:25:06.857Z,9.7
2023-03-26T09:28:08.809Z,10.8
2023-03-26T09:31:10.773Z,5.2
2023-03-26T09:34:12.731Z,11.4
2023-03-26T09:37:14.682Z,6.9
2023-03-26T09:40:16.715Z,8.4
2023-03-26T09:43:18.654Z,4.5
2023-03-26T09:46:20.676Z,6
2023-03-26T09:49:22.582Z,5.3
2023-03-26T09:52:24.645Z,6.1
2023-03-26T09:55:26.582Z,5.8
2023-03-26T09:58:28.598Z,6.3
2023-03-26T10:01:30.561Z,5.1
2023-03-26T10:04:32.489Z,6.8
2023-03-26T10:07:34.443Z,6.1
2023-03-26T10:10:36.490Z,5.3
2023-03-26T10:13:38.402Z,5.6
2023-03-26T10:16:40.368Z,6.2
2023-03-26T10:19:42.316Z,7.4
2023-03-26T10:22:44.329Z,4.5
2023-03-26T10:25:46.297Z,4.7
2023-03-26T10:28:48.245Z,4.6
2023-03-26T10:31:50.220Z,4.6
2023-03-26T10:34:52.174Z,3.9
2023-03-26T10:37:54.359Z,4.7
2023-03-26T10:40:56.293Z,4.4
2023-03-26T10:44:07.739Z,3.1
2023-03-26T10:47:00.048Z,4.4
2023-03-26T10:50:02.036Z,6.5
2023-03-26T10:53:04.019Z,1.8
2023-03-26T10:56:05.942Z,3.9
2023-03-26T10:59:07.919Z,4.9
2023-03-26T11:02:09.918Z,4.2
2023-03-26T11:05:12.072Z,4.1
2023-03-26T11:08:13.808Z,5.9
2023-03-26T11:11:16.053Z,4.6
2023-03-26T11:14:24.599Z,4.3
2023-03-26T11:17:39.273Z,5.6
2023-03-26T11:20:21.665Z,3.7
2023-03-26T11:23:23.692Z,3.4
2023-03-26T11:26:25.637Z,3.7
2023-03-26T11:29:32.111Z,2.4
2023-03-26T11:32:29.568Z,3.1
2023-03-26T11:35:39.342Z,2.7
2023-03-26T11:38:33.488Z,4
2023-03-26T11:41:35.461Z,5.1
2023-03-26T11:44:37.406Z,3.9
2023-03-26T11:47:39.382Z,3.4
2023-03-26T11:50:41.336Z,2.7
2023-03-26T11:53:43.302Z,4
2023-03-26T11:57:04.368Z,2.4
2023-03-26T11:59:56.238Z,4.2
2023-03-26T12:02:49.323Z,2
2023-03-26T12:05:51.196Z,2.2
2023-03-26T12:08:53.136Z,4.5
2023-03-26T12:11:55.163Z,4.8
2023-03-26T12:14:57.099Z,4.4
2023-03-26T12:17:59.107Z,3.1
2023-03-26T12:21:00.996Z,4.2
2023-03-26T12:24:02.997Z,2.8
2023-03-26T12:27:04.983Z,2.2
2023-03-26T12:30:06.963Z,2.8
2023-03-26T12:33:08.939Z,4.6
2023-03-26T12:36:10.866Z,2.7
2023-03-26T12:39:16.028Z,1.7
2023-03-26T12:42:52.908Z,2.7
2023-03-26T12:45:16.777Z,2.5
2023-03-26T12:48:18.759Z,2.8
2023-03-26T12:51:20.711Z,2.6
2023-03-26T12:54:22.659Z,4
2023-03-26T12:57:24.673Z,2.3
2023-03-26T13:00:26.592Z,2.7
2023-03-26T13:03:28.586Z,1.9
2023-03-26T13:06:30.534Z,2.9
2023-03-26T13:09:32.519Z,2.3
2023-03-26T13:12:34.462Z,3.2
2023-03-26T13:15:36.404Z,1.7
2023-03-26T13:18:38.367Z,3.5
2023-03-26T13:21:40.338Z,1.6
2023-03-26T13:24:42.300Z,1.7
2023-03-26T13:27:44.256Z,1.4
2023-03-26T13:30:46.239Z,2.1
2023-03-26T13:33:48.164Z,4.4
2023-03-26T13:36:50.243Z,1.5
2023-03-26T13:39:52.103Z,2.6
2023-03-26T13:42:55.517Z,1.7
2023-03-26T13:45:56.050Z,3.3
2023-03-26T13:48:57.968Z,2.7
2023-03-26T13:51:59.964Z,2.1
2023-03-26T13:55:01.881Z,1.1
2023-03-26T13:58:03.868Z,2.1
2023-03-26T14:01:05.851Z,1.3
2023-03-26T14:04:07.798Z,2.6
2023-03-26T14:07:09.760Z,2.4
2023-03-26T14:10:11.719Z,1.1
2023-03-26T14:13:13.664Z,2.6
2023-03-26T14:16:15.666Z,1.7
2023-03-26T14:19:17.570Z,2.3
2023-03-26T14:22:19.543Z,1.7
2023-03-26T14:25:21.501Z,1.6
2023-03-26T14:28:23.449Z,1.9
2023-03-26T14:31:25.519Z,1.5
2023-03-26T14:34:27.389Z,3.2
2023-03-26T14:37:29.381Z,2
2023-03-26T14:40:31.336Z,3.1
2023-03-26T14:43:33.270Z,1.9
2023-03-26T14:46:35.339Z,2.5
2023-03-26T14:49:37.189Z,2.8
2023-03-26T14:52:39.172Z,2.1
2023-03-26T14:55:41.106Z,3
2023-03-26T14:58:43.116Z,4
2023-03-26T15:01:45.061Z,3.8
2023-03-26T15:04:47.075Z,2.4
2023-03-26T15:07:48.971Z,2.3
2023-03-26T15:10:50.937Z,1.7
2023-03-26T15:13:52.894Z,3.6
2023-03-26T15:16:54.973Z,3.8
2023-03-26T15:19:56.816Z,1.6
2023-03-26T15:22:58.830Z,2
2023-03-26T15:26:00.765Z,3
2023-03-26T15:29:02.720Z,3.8
2023-03-26T15:32:04.682Z,4.3
2023-03-26T15:35:06.682Z,3.5
2023-03-26T15:38:08.607Z,2.3
2023-03-26T15:41:10.577Z,3.4
2023-03-26T15:44:22.263Z,4.3
2023-03-26T15:47:14.521Z,3.6
2023-03-26T15:50:16.483Z,6.8
2023-03-26T15:53:18.790Z,6.2
2023-03-26T15:56:20.416Z,1.4
2023-03-26T15:59:22.366Z,1.6
2023-03-26T16:02:24.331Z,2.9
2023-03-26T16:05:26.363Z,4.5
2023-03-26T16:08:28.251Z,1.6
2023-03-26T16:11:30.231Z,1
2023-03-26T16:14:32.150Z,3.7
2023-03-26T16:17:34.168Z,1
2023-03-26T16:20:36.114Z,0.6
2023-03-26T16:23:47.401Z,1.3
2023-03-26T16:26:40.096Z,0.4
2023-03-26T16:29:42.088Z,0.5
2023-03-26T16:32:44.077Z,0.3
2023-03-26T16:35:46.061Z,2.7
2023-03-26T16:38:47.957Z,0.7
2023-03-26T16:41:49.932Z,1.1
2023-03-26T16:44:51.903Z,1.9
2023-03-26T16:50:55.963Z,2.8
2023-03-26T16:53:58.084Z,3.6
2023-03-26T16:56:59.835Z,1.9
2023-03-26T17:00:04.972Z,4.1
2023-03-26T17:03:03.807Z,1.3
2023-03-26T17:06:05.665Z,1.4
2023-03-26T17:09:09.444Z,1.6
2023-03-26T17:12:09.597Z,2.1
2023-03-26T17:15:11.546Z,1.6
2023-03-26T17:18:13.599Z,1.4
2023-03-26T17:21:15.505Z,2.3
2023-03-26T17:24:17.459Z,2.3
2023-03-26T17:27:19.561Z,3.2
2023-03-26T17:30:21.645Z,2.1
2023-03-26T17:33:23.339Z,2.2
2023-03-26T17:36:25.324Z,3.1
2023-03-26T17:39:27.267Z,0.9
2023-03-26T17:42:29.233Z,3.4
2023-03-26T17:45:31.279Z,5.7
2023-03-26T17:48:33.196Z,3.4
2023-03-26T17:51:35.152Z,1.8
2023-03-26T17:54:37.092Z,3.8
2023-03-26T17:57:39.058Z,2.1
2023-03-26T18:00:41.061Z,1.8
2023-03-26T18:03:42.975Z,2.5
2023-03-26T18:06:44.967Z,2.1
2023-03-26T18:09:46.947Z,2.9
2023-03-26T18:12:50.591Z,2
2023-03-26T18:15:50.841Z,2.2
2023-03-26T18:18:52.802Z,2.4
2023-03-26T18:21:54.766Z,4.3
2023-03-26T18:24:56.724Z,2.4
2023-03-26T18:27:58.682Z,2.5
2023-03-26T18:31:00.670Z,4.4
2023-03-26T18:34:02.654Z,1.8
2023-03-26T18:37:04.585Z,1.8
2023-03-26T18:40:06.578Z,1.3
2023-03-26T18:43:08.528Z,2.4
2023-03-26T18:46:10.554Z,2
2023-03-26T18:49:12.503Z,2
2023-03-26T18:52:14.451Z,1.8
2023-03-26T18:55:16.420Z,2.2
2023-03-26T18:58:18.355Z,2.2
2023-03-26T19:01:25.653Z,1.8
2023-03-26T19:04:22.262Z,2.4
2023-03-26T19:07:24.264Z,1.7
2023-03-26T19:10:26.189Z,2.4
2023-03-26T19:13:28.140Z,1.1
2023-03-26T19:16:30.144Z,2.9
2023-03-26T19:19:32.082Z,2.5
2023-03-26T19:22:34.053Z,2
2023-03-26T19:25:36.048Z,2.2
2023-03-26T19:28:38.171Z,1.1
2023-03-26T19:31:39.993Z,1.4
2023-03-26T19:34:41.929Z,1.8
2023-03-26T19:37:43.897Z,1.8
2023-03-26T19:40:45.826Z,2.2
2023-03-26T19:43:47.789Z,1.8
2023-03-26T19:46:53.159Z,2.6
2023-03-26T19:49:51.706Z,5.3
2023-03-26T19:52:55.452Z,3.9
2023-03-26T19:55:55.705Z,2.4
2023-03-26T19:58:57.627Z,2.5
2023-03-26T20:01:59.553Z,1.7
2023-03-26T20:05:01.505Z,2
2023-03-26T20:08:03.489Z,2.6
2023-03-26T20:11:05.481Z,2.1
2023-03-26T20:14:07.426Z,3.3
2023-03-26T20:17:09.404Z,3
2023-03-26T20:20:11.311Z,4.7
2023-03-26T20:23:13.289Z,2.1
2023-03-26T20:26:15.289Z,1.9
2023-03-26T20:29:17.188Z,2.1
2023-03-26T20:32:19.218Z,2.4
2023-03-26T20:35:35.716Z,1.7
2023-03-26T20:38:33.019Z,3
2023-03-26T20:41:25.077Z,4.5
2023-03-26T20:44:27.067Z,1.8
2023-03-26T20:47:29.073Z,1.7
2023-03-26T20:50:33.624Z,2.2
2023-03-26T20:53:32.946Z,1.8
2023-03-26T20:56:35.305Z,2.1
2023-03-26T20:59:36.957Z,1.6
2023-03-26T21:02:40.097Z,3.1
2023-03-26T21:05:40.794Z,2.1
2023-03-26T21:08:42.780Z,1.2
2023-03-26T21:11:44.760Z,2.2
2023-03-26T21:14:46.688Z,1.6
2023-03-26T21:17:48.715Z,2.5
2023-03-26T21:20:50.651Z,1.3
2023-03-26T21:23:52.559Z,1.1
2023-03-26T21:26:54.540Z,1
2023-03-26T21:29:56.467Z,1.7
2023-03-26T21:32:58.544Z,1.3
2023-03-26T21:36:00.592Z,1.4
2023-03-26T21:39:02.406Z,1.5
2023-03-26T21:42:05.962Z,1.5
2023-03-26T21:45:06.403Z,3.1
2023-03-26T21:48:08.357Z,2.7
2023-03-26T21:51:10.304Z,1.2
2023-03-26T21:54:12.290Z,2.6
2023-03-26T21:57:14.367Z,2.4
2023-03-26T22:00:16.280Z,1.7
2023-03-26T22:03:18.292Z,3
2023-03-26T22:06:20.184Z,2.1
2023-03-26T22:09:33.785Z,1.4
2023-03-26T22:12:24.124Z,2.2
2023-03-26T22:15:26.076Z,1.9
2023-03-26T22:18:28.023Z,1.7
2023-03-26T22:21:30.029Z,2.8
2023-03-26T22:24:32.034Z,3.2
2023-03-26T22:27:33.965Z,2.9
2023-03-26T22:30:35.973Z,3.3
2023-03-26T22:33:37.934Z,3
2023-03-26T22:36:40.485Z,4.1
2023-03-26T22:39:41.853Z,3.7
2023-03-26T22:42:43.817Z,3.3
2023-03-26T22:45:45.840Z,3.8
2023-03-26T22:48:47.744Z,8.4
2023-03-26T22:51:49.823Z,4
2023-03-26T22:54:51.669Z,4.6
2023-03-26T22:57:53.640Z,4.5
2023-03-26T23:00:55.652Z,3.4
2023-03-26T23:03:57.530Z,5.3
2023-03-26T23:06:59.511Z,4
2023-03-26T23:10:01.434Z,4.2
2023-03-26T23:13:03.405Z,3.9
2023-03-26T23:16:05.438Z,3.7
2023-03-26T23:19:07.384Z,4.1
2023-03-26T23:22:09.294Z,3.8
2023-03-26T23:25:11.274Z,4.2
2023-03-26T23:28:13.267Z,5.5
2023-03-26T23:31:15.221Z,4.2
2023-03-26T23:34:17.274Z,4.4
2023-03-26T23:37:19.165Z,2.9
2023-03-26T23:40:21.107Z,6
2023-03-26T23:43:23.060Z,4.9
2023-03-26T23:46:25.054Z,6.2
2023-03-26T23:49:26.993Z,4.5
2023-03-26T23:52:28.930Z,10.7
2023-03-26T23:55:30.897Z,7.2
2023-03-26T23:58:32.857Z,6.6
